• Join FlightAware (Why Join?)
  • Login
  • US Flag 
08:48AM EDT


 

Airport Tracker/Info


-or-


 

Live Flight TrackerFlight Track Log ✈ UAL4670 ✈ 19-Sep-2013 ✈ KIAH - KMSY

Flight Track Log - Related Links

Times and Time Zones

All times are in EDT time to prevent confusion due to time zone crossing. See the UAL4670 flight status page for this flight to view local times or setup timezone preferences in your user account.

Time Position Orientation Groundspeed Altitude Reporting Facility
EDT Latitude Longitude Course Direction KTS MPH feet Rate Location/Type
11:51PM 29.9639 -95.3433 105° East 163 188 500  Level Houston Center
11:52PM 29.9192 -95.3150 151° Southeast 173 199 2,600 1,740 Climbing Houston Center
11:53PM 29.9078 -95.3081 152° Southeast 183 211 2,800 2,160 Climbing Houston Center
11:53PM 29.8589 -95.2764 151° Southeast 248 285 4,800 2,700 Climbing Houston Center
11:54PM 29.8503 -95.2647 130° Southeast 239 275 5,500 2,580 Climbing Houston Center
11:55PM 29.9930 -94.8945 97° East  Level Estimated
11:55PM 29.8028 -95.2031 132° Southeast 253 291 8,200  Level Houston Center
11:56PM 29.9674 -94.7867 105° East  Level FlightAware Approximate
11:56PM 29.7861 -95.1244 104° East 277 319 10,300  Level Houston Center
11:57PM 29.9417 -94.6790 105° East  Level FlightAware Approximate
11:57PM 29.7983 -95.0292 82° East 293 337 12,000  Level Houston Center
11:58PM 29.8044 -94.9236 86° East 320 368 13,300 1,320 Climbing Houston Center
11:59PM 29.8153 -94.8122 84° East 341 392 14,700 1,380 Climbing Houston Center
12:00AM 29.8567 -94.7025 66° East 382 440 16,100 1,620 Climbing Houston Center
12:01AM 29.9086 -94.6022 59° Northeast 370 426 18,000 1,920 Climbing Houston Center
12:02AM 29.9428 -94.4944 70° East 371 427 20,000 1,980 Climbing Houston Center
12:03AM 29.9553 -94.3831 83° East 343 395 22,100 1,440 Climbing Houston Center
12:04AM 29.9606 -94.2739 87° East 342 394 23,000 420 Climbing Houston Center
12:05AM 29.9681 -94.1497 86° East 388 447 23,000 -60 Level Houston Center
12:06AM 29.9378 -94.0200 105° East 427 491 22,900  Descending Houston Center
12:07AM 29.9114 -93.8825 102° East 450 518 23,000  Climbing Houston Center
12:08AM 29.9244 -93.7358 84° East 462 532 23,000  Level Houston Center
12:09AM 29.9356 -93.5875 85° East 466 536 23,000  Level Houston Center
12:10AM 29.9467 -93.4383 85° East 471 542 23,000  Level Houston Center
12:11AM 29.9575 -93.2903 85° East 470 541 23,000  Level Houston Center
12:12AM 29.9711 -93.1142 85° East 466 536 23,000  Level Houston Center
12:13AM 29.9819 -92.9664 85° East 465 535 23,000  Level Houston Center
12:14AM 29.9925 -92.8211 85° East 459 528 23,000  Level Houston Center
12:15AM 30.0036 -92.6714 85° East 467 537 23,000  Level Houston Center
12:16AM 30.0144 -92.5206 85° East 473 544 23,000  Level Houston Center
12:17AM 30.0247 -92.3736 85° East 465 535 23,000  Level Houston Center
12:18AM 30.0350 -92.2267 85° East 461 531 23,000  Level Houston Center
12:19AM 30.0444 -92.0797 86° East 461 531 23,000  Level Houston Center
12:20AM 30.0550 -91.9322 85° East 463 533 23,000  Level Houston Center
12:21AM 30.0647 -91.7853 86° East 461 531 23,000 -600 Level Houston Center
12:22AM 30.0747 -91.6278 86° East 463 533 21,800 -1,620 Descending Houston Center
12:23AM 30.0839 -91.4825 86° East 458 527 19,800 -2,040 Descending Houston Center
12:24AM 30.0922 -91.3494 86° East 423 487 17,700 -2,160 Descending Houston Center
12:25AM 30.0997 -91.2256 86° East 393 452 15,500 -2,340 Descending Houston Center
12:25AM 30.1031 -91.1739 86° East 380 437 14,500 -2,340 Descending Houston Center
12:26AM 30.1078 -91.1058 85° East 376 433 13,200 -2,220 Descending Houston Center
12:26AM 30.1108 -91.0536 86° East 375 432 12,300 -2,280 Descending Houston Center
12:27AM 30.1156 -90.9836 86° East 383 441 10,900 -2,220 Descending Houston Center
12:27AM 30.1097 -90.9261 97° East 368 423 10,100 -900 Descending Houston Center
12:28AM 30.1108 -90.8742 89° East 350 403 10,000 -240 Descending Houston Center
12:28AM 30.1072 -90.8278 95° East 287 330 9,900 -1,200 Descending Houston Center
12:29AM 30.1031 -90.7864 97° East 286 329 8,800 -2,100 Descending Houston Center
12:29AM 30.1008 -90.7414 93° East 261 300 7,800 -1,920 Descending Houston Center
12:30AM 30.0969 -90.6989 96° East 278 320 6,900 -1,680 Descending Houston Center
12:30AM 30.0839 -90.6556 109° East 274 315 6,100 -1,800 Descending Houston Center
12:31AM 30.0764 -90.6158 102° East 272 313 5,100 -1,920 Descending Houston Center
12:31AM 30.0647 -90.5747 108° East 260 299 4,200 -1,140 Descending Houston Center
12:32AM 30.0578 -90.5378 102° East 264 304 4,000 -120 Descending Houston Center
12:32AM 30.0503 -90.5056 105° East 212 244 4,100 -540 Climbing Houston Center
12:33AM 30.0436 -90.4775 105° East 222 255 3,500 -1,320 Descending Houston Center
12:33AM 30.0361 -90.4461 105° East 193 222 2,800 -1,200 Descending Houston Center
12:34AM 30.0308 -90.4169 102° East 204 235 2,300 -1,020 Descending Houston Center
12:34AM 30.0242 -90.3911 107° East 163 188 1,800 -900 Descending Houston Center
12:35AM 30.0175 -90.3686 109° East 182 209 1,400 -720 Descending Houston Center
12:35AM 30.0122 -90.3461 105° East 129 148 1,100 -600 Descending Houston Center
12:36AM 30.0094 -90.3306 102° East 149 171 800 -600 Descending Houston Center
12:37AM 30.0028 -90.3081 109° East 139 160 500 -300 Descending Houston Center
12:37AM 29.9981 -90.2869 104° East 138 159 500  Level Houston Center